Wilson Maas — 8PSZ — position and weather

sailwx.info

Track history (hours):
 
Tides and Currents Weather Stations Pressure Air Temp Water Temp Dewpoint Dewpoint Depression Visibility Wind Speed Wind Dir Waves Ship Positions

Wilson Maas

Last reported at 2017-Aug-17 01:30 UTC. Time now 2017-Aug-17 01:30 UTC.
Position N 51°53' E 006°02'.

Length 78 m; draft 3.8 m.

Type: Ship. MMSI: 314217000.

Date/timePositionNaut miles runAvg speedWind from/ knotsBaromVisibWave heightAir tempDewpointWater temp
2017-Aug-17 01:30N 51°53' E 006°02'5 9.6
2017-Aug-17 01:00N 51°51' E 006°09'5 9.6
2017-Aug-17 00:30N 51°49' E 006°16'7 9.0
2017-Aug-16 23:46N 51°45' E 006°25'4 7.5
2017-Aug-16 23:17N 51°42' E 006°28'3 9.7
2017-Aug-16 23:00N 51°40' E 006°30'4 6.8
2017-Aug-16 22:24N 51°37' E 006°35'5 7.0
2017-Aug-16 21:39N 51°33' E 006°41'3 8.1
2017-Aug-16 21:19N 51°31' E 006°43'3 7.9
2017-Aug-16 21:00N 51°29' E 006°41'3 5.5
2017-Aug-16 20:28N 51°27' E 006°45'0 0.8
2017-Aug-16 19:58N 51°27' E 006°45'0 0.0
2017-Aug-16 19:28N 51°27' E 006°45'0 0.0
2017-Aug-16 18:58N 51°27' E 006°45'0 0.0
2017-Aug-16 18:28N 51°27' E 006°45'0 0.0
2017-Aug-16 17:58N 51°27' E 006°45'0 0.0
2017-Aug-16 17:28N 51°27' E 006°45'0 0.0
2017-Aug-16 16:58N 51°27' E 006°45'0 0.0
2017-Aug-16 16:28N 51°27' E 006°45'0 0.0
2017-Aug-16 15:58N 51°27' E 006°45'0 0.0
2017-Aug-16 15:28N 51°27' E 006°45'0 0.0
2017-Aug-16 14:58N 51°27' E 006°45'0 0.1
2017-Aug-16 14:28N 51°27' E 006°45'0 0.0
2017-Aug-16 13:58N 51°27' E 006°45'0 0.0
2017-Aug-16 13:28N 51°27' E 006°45'0 0.0
2017-Aug-16 12:58N 51°27' E 006°45'0 0.0
2017-Aug-16 12:28N 51°27' E 006°45'0 0.0
2017-Aug-16 11:37N 51°27' E 006°45'0 0.0
2017-Aug-16 11:28N 51°27' E 006°45'0 0.0
2017-Aug-16 10:58N 51°27' E 006°45'0 0.0
2017-Aug-16 10:28N 51°27' E 006°45'0 0.0
2017-Aug-16 09:52N 51°27' E 006°45'0 0.0
2017-Aug-16 09:28N 51°27' E 006°45'0 0.0
2017-Aug-16 08:55N 51°27' E 006°45'0 0.0
2017-Aug-16 08:28N 51°27' E 006°45'0 0.0
2017-Aug-16 07:58N 51°27' E 006°45'0 0.0
2017-Aug-16 07:28N 51°27' E 006°45'0 0.0
2017-Aug-16 06:55N 51°27' E 006°45'0 0.0
2017-Aug-16 06:28N 51°27' E 006°45'0 0.0
2017-Aug-16 05:55N 51°27' E 006°45'0 0.0
2017-Aug-16 05:28N 51°27' E 006°45'0 0.0
2017-Aug-16 04:58N 51°27' E 006°45'0 0.0
2017-Aug-16 04:25N 51°27' E 006°45'0 0.0
2017-Aug-16 03:58N 51°27' E 006°45'0 0.0
2017-Aug-16 03:28N 51°27' E 006°45'0 0.0
2017-Aug-16 02:58N 51°27' E 006°45'0 0.0
2017-Aug-16 02:28N 51°27' E 006°45'0 0.0
2017-Aug-16 01:46N 51°27' E 006°45'0 0.0
2017-Aug-16 01:28N 51°27' E 006°45'0 0.0
2017-Aug-16 00:58N 51°27' E 006°45'0 0.0
2017-Aug-16 00:28N 51°27' E 006°45'0 0.0
2017-Aug-15 23:58N 51°27' E 006°45'0 0.0
2017-Aug-15 23:28N 51°27' E 006°45'0 0.0
2017-Aug-15 22:58N 51°27' E 006°45'0 0.0
2017-Aug-15 22:28N 51°27' E 006°45'0 0.0
2017-Aug-15 21:58N 51°27' E 006°45'0 0.0
2017-Aug-15 21:28N 51°27' E 006°45'0 0.0
2017-Aug-15 20:58N 51°27' E 006°45'0 0.0
2017-Aug-15 20:28N 51°27' E 006°45'0 0.0
2017-Aug-15 19:52N 51°27' E 006°45'0 0.0
2017-Aug-15 19:28N 51°27' E 006°45'0 0.0
2017-Aug-15 18:58N 51°27' E 006°45'0 0.0
2017-Aug-15 18:28N 51°27' E 006°45'0 0.0
2017-Aug-15 17:55N 51°27' E 006°45'0 0.0
2017-Aug-15 17:28N 51°27' E 006°45'0 0.0
2017-Aug-15 16:58N 51°27' E 006°45'0 0.0
2017-Aug-15 16:28N 51°27' E 006°45'0 0.0
2017-Aug-15 15:55N 51°27' E 006°45'0 0.0
2017-Aug-15 15:28N 51°27' E 006°45'0 0.0
2017-Aug-15 14:58N 51°27' E 006°45'0 0.0
2017-Aug-15 14:22N 51°27' E 006°45'0 0.0
2017-Aug-15 13:43N 51°27' E 006°45'0 0.0
2017-Aug-15 13:13N 51°27' E 006°45'0 0.0
2017-Aug-15 12:58N 51°27' E 006°45'0 0.3
2017-Aug-15 12:28N 51°27' E 006°45'0 0.0
2017-Aug-15 11:58N 51°27' E 006°45'0 0.0
2017-Aug-15 11:28N 51°27' E 006°45'0 0.0
2017-Aug-15 10:58N 51°27' E 006°45'0 0.0
2017-Aug-15 10:28N 51°27' E 006°45'0 0.0
2017-Aug-15 09:58N 51°27' E 006°45'0 0.0
2017-Aug-15 09:28N 51°27' E 006°45'0 0.0
2017-Aug-15 08:58N 51°27' E 006°45'0 0.0
2017-Aug-15 08:28N 51°27' E 006°45'0 0.0
2017-Aug-15 07:58N 51°27' E 006°45'0 0.0
2017-Aug-15 07:22N 51°27' E 006°45'0 0.0
2017-Aug-15 06:58N 51°27' E 006°45'0 0.0
2017-Aug-15 06:28N 51°27' E 006°45'0 0.0
2017-Aug-15 05:58N 51°27' E 006°45'0 0.0
2017-Aug-15 05:28N 51°27' E 006°45'0 0.0
2017-Aug-15 04:55N 51°27' E 006°45'0 1.1
2017-Aug-15 04:30N 51°27' E 006°44'3 5.2
2017-Aug-15 04:00N 51°29' E 006°41'3 5.3
2017-Aug-15 03:30N 51°31' E 006°43'7 4.6
2017-Aug-15 02:04N 51°35' E 006°36'1 6.9
2017-Aug-15 01:58N 51°36' E 006°36'3 5.9
2017-Aug-15 01:24N 51°39' E 006°36'3 6.2
2017-Aug-15 00:59N 51°40' E 006°31'4 5.8
2017-Aug-15 00:14N 51°43' E 006°26'2 4.7
2017-Aug-14 23:49N 51°44' E 006°25'2 5.3
2017-Aug-14 23:28N 51°45' E 006°23'3 6.0
2017-Aug-14 22:59N 51°47' E 006°19'3 6.4
2017-Aug-14 22:30N 51°49' E 006°16'3 6.2
2017-Aug-14 22:00N 51°50' E 006°11'3 6.3
2017-Aug-14 21:30N 51°51' E 006°06'4 7.2
2017-Aug-14 21:00N 51°53' E 006°01'3 5.6
2017-Aug-14 20:30N 51°52' E 005°57'3 6.3
2017-Aug-14 20:00N 51°51' E 005°52'4 7.5
2017-Aug-14 19:30N 51°53' E 005°46'30 7.1
2017-Aug-14 15:16N 51°49' E 004°58'3 9.2
2017-Aug-14 14:59N 51°49' E 004°54'4 9.0
2017-Aug-14 14:30N 51°49' E 004°47'4 8.3
2017-Aug-14 14:00N 51°50' E 004°40'510.7
2017-Aug-14 13:30N 51°54' E 004°35'3 5.8
2017-Aug-14 13:00N 51°55' E 004°30'2 3.1
2017-Aug-14 12:30N 51°54' E 004°28'0 0.0
2017-Aug-14 11:59N 51°54' E 004°28'0 0.0
2017-Aug-14 11:30N 51°54' E 004°28'0 0.0
2017-Aug-14 11:00N 51°54' E 004°28'0 0.0
2017-Aug-14 10:30N 51°54' E 004°28'0 0.0
2017-Aug-14 10:00N 51°54' E 004°28'0 0.0
2017-Aug-14 09:30N 51°54' E 004°28'0 0.0
2017-Aug-14 09:00N 51°54' E 004°28'0 0.0
2017-Aug-14 08:30N 51°54' E 004°28'0 0.0
2017-Aug-14 08:00N 51°54' E 004°28'0 0.1
2017-Aug-14 07:30N 51°54' E 004°28'0 0.3
2017-Aug-14 07:01N 51°54' E 004°28'3 6.7
2017-Aug-14 06:31N 51°54' E 004°23'611.6
2017-Aug-14 06:01N 51°55' E 004°14'612.2
2017-Aug-14 05:30N 51°59' E 004°06'510.9
2017-Aug-14 05:01N 52°00' E 003°57'611.1
2017-Aug-14 04:31N 52°02' E 003°49'4 8.0
2017-Aug-14 04:00N 52°03' E 003°42'713.5
2017-Aug-14 03:30N 52°06' E 003°33'1 1.9
2017-Aug-14 03:00N 52°07' E 003°31'3 6.6
2017-Aug-14 02:30N 52°08' E 003°27'4 8.2
2017-Aug-14 02:00N 52°11' E 003°21'3 6.7
2017-Aug-14 01:30N 52°12' E 003°16'8 7.3
2017-Aug-14 00:28N 52°16' E 003°06'7 7.5
2017-Aug-13 23:30N 52°21' E 002°56'4 7.6
2017-Aug-13 22:57N 52°23' E 002°51'44 7.2
2017-Aug-13 16:50N 52°48' E 001°51'2 7.1
2017-Aug-13 16:31N 52°49' E 001°48'4 7.2
2017-Aug-13 16:00N 52°51' E 001°43'4 7.3
2017-Aug-13 15:30N 52°53' E 001°38'4 7.3
2017-Aug-13 15:01N 52°55' E 001°32'3 6.9
2017-Aug-13 14:31N 52°58' E 001°29'3 6.3
2017-Aug-13 14:01N 53°00' E 001°25'3 6.8
2017-Aug-13 13:31N 53°03' E 001°22'4 7.2
2017-Aug-13 13:01N 53°06' E 001°18'4 7.4
2017-Aug-13 12:31N 53°09' E 001°15'4 7.8
2017-Aug-13 12:00N 53°12' E 001°11'4 8.4
2017-Aug-13 11:31N 53°15' E 001°06'  
2017-Aug-07 17:55N 53°38' W 000°10'1 0.1
2017-Aug-07 09:02N 53°38' W 000°12'0 0.4
2017-Aug-07 08:21N 53°38' W 000°11'0 0.7
2017-Aug-07 08:00N 53°38' W 000°11'0 0.2
2017-Aug-07 07:30N 53°38' W 000°11'2 4.2
2017-Aug-07 07:00N 53°38' W 000°08'  
Track history (hours):
 
Tides and Currents Weather Stations Pressure Air Temp Water Temp Dewpoint Dewpoint Depression Visibility Wind Speed Wind Dir Waves Ship Positions

Wilson Maas

Last reported at 2017-Aug-17 01:30 UTC. Time now 2017-Aug-17 01:30 UTC.
Position N 51°53' E 006°02'.

Length 78 m; draft 3.8 m.

Type: Ship. MMSI: 314217000.

Date/timePositionNaut miles runAvg speedWind from/ knotsBaromVisibWave heightAir tempDewpointWater temp
2017-Aug-17 01:30N 51°53' E 006°02'5 9.6
2017-Aug-17 01:00N 51°51' E 006°09'5 9.6
2017-Aug-17 00:30N 51°49' E 006°16'7 9.0
2017-Aug-16 23:46N 51°45' E 006°25'4 7.5
2017-Aug-16 23:17N 51°42' E 006°28'3 9.7
2017-Aug-16 23:00N 51°40' E 006°30'4 6.8
2017-Aug-16 22:24N 51°37' E 006°35'5 7.0
2017-Aug-16 21:39N 51°33' E 006°41'3 8.1
2017-Aug-16 21:19N 51°31' E 006°43'3 7.9
2017-Aug-16 21:00N 51°29' E 006°41'3 5.5
2017-Aug-16 20:28N 51°27' E 006°45'0 0.8
2017-Aug-16 19:58N 51°27' E 006°45'0 0.0
2017-Aug-16 19:28N 51°27' E 006°45'0 0.0
2017-Aug-16 18:58N 51°27' E 006°45'0 0.0
2017-Aug-16 18:28N 51°27' E 006°45'0 0.0
2017-Aug-16 17:58N 51°27' E 006°45'0 0.0
2017-Aug-16 17:28N 51°27' E 006°45'0 0.0
2017-Aug-16 16:58N 51°27' E 006°45'0 0.0
2017-Aug-16 16:28N 51°27' E 006°45'0 0.0
2017-Aug-16 15:58N 51°27' E 006°45'0 0.0
2017-Aug-16 15:28N 51°27' E 006°45'0 0.0
2017-Aug-16 14:58N 51°27' E 006°45'0 0.1
2017-Aug-16 14:28N 51°27' E 006°45'0 0.0
2017-Aug-16 13:58N 51°27' E 006°45'0 0.0
2017-Aug-16 13:28N 51°27' E 006°45'0 0.0
2017-Aug-16 12:58N 51°27' E 006°45'0 0.0
2017-Aug-16 12:28N 51°27' E 006°45'0 0.0
2017-Aug-16 11:37N 51°27' E 006°45'0 0.0
2017-Aug-16 11:28N 51°27' E 006°45'0 0.0
2017-Aug-16 10:58N 51°27' E 006°45'0 0.0
2017-Aug-16 10:28N 51°27' E 006°45'0 0.0
2017-Aug-16 09:52N 51°27' E 006°45'0 0.0
2017-Aug-16 09:28N 51°27' E 006°45'0 0.0
2017-Aug-16 08:55N 51°27' E 006°45'0 0.0
2017-Aug-16 08:28N 51°27' E 006°45'0 0.0
2017-Aug-16 07:58N 51°27' E 006°45'0 0.0
2017-Aug-16 07:28N 51°27' E 006°45'0 0.0
2017-Aug-16 06:55N 51°27' E 006°45'0 0.0
2017-Aug-16 06:28N 51°27' E 006°45'0 0.0
2017-Aug-16 05:55N 51°27' E 006°45'0 0.0
2017-Aug-16 05:28N 51°27' E 006°45'0 0.0
2017-Aug-16 04:58N 51°27' E 006°45'0 0.0
2017-Aug-16 04:25N 51°27' E 006°45'0 0.0
2017-Aug-16 03:58N 51°27' E 006°45'0 0.0
2017-Aug-16 03:28N 51°27' E 006°45'0 0.0
2017-Aug-16 02:58N 51°27' E 006°45'0 0.0
2017-Aug-16 02:28N 51°27' E 006°45'0 0.0
2017-Aug-16 01:46N 51°27' E 006°45'0 0.0
2017-Aug-16 01:28N 51°27' E 006°45'0 0.0
2017-Aug-16 00:58N 51°27' E 006°45'0 0.0
2017-Aug-16 00:28N 51°27' E 006°45'0 0.0
2017-Aug-15 23:58N 51°27' E 006°45'0 0.0
2017-Aug-15 23:28N 51°27' E 006°45'0 0.0
2017-Aug-15 22:58N 51°27' E 006°45'0 0.0
2017-Aug-15 22:28N 51°27' E 006°45'0 0.0
2017-Aug-15 21:58N 51°27' E 006°45'0 0.0
2017-Aug-15 21:28N 51°27' E 006°45'0 0.0
2017-Aug-15 20:58N 51°27' E 006°45'0 0.0
2017-Aug-15 20:28N 51°27' E 006°45'0 0.0
2017-Aug-15 19:52N 51°27' E 006°45'0 0.0
2017-Aug-15 19:28N 51°27' E 006°45'0 0.0
2017-Aug-15 18:58N 51°27' E 006°45'0 0.0
2017-Aug-15 18:28N 51°27' E 006°45'0 0.0
2017-Aug-15 17:55N 51°27' E 006°45'0 0.0
2017-Aug-15 17:28N 51°27' E 006°45'0 0.0
2017-Aug-15 16:58N 51°27' E 006°45'0 0.0
2017-Aug-15 16:28N 51°27' E 006°45'0 0.0
2017-Aug-15 15:55N 51°27' E 006°45'0 0.0
2017-Aug-15 15:28N 51°27' E 006°45'0 0.0
2017-Aug-15 14:58N 51°27' E 006°45'0 0.0
2017-Aug-15 14:22N 51°27' E 006°45'0 0.0
2017-Aug-15 13:43N 51°27' E 006°45'0 0.0
2017-Aug-15 13:13N 51°27' E 006°45'0 0.0
2017-Aug-15 12:58N 51°27' E 006°45'0 0.3
2017-Aug-15 12:28N 51°27' E 006°45'0 0.0
2017-Aug-15 11:58N 51°27' E 006°45'0 0.0
2017-Aug-15 11:28N 51°27' E 006°45'0 0.0
2017-Aug-15 10:58N 51°27' E 006°45'0 0.0
2017-Aug-15 10:28N 51°27' E 006°45'0 0.0
2017-Aug-15 09:58N 51°27' E 006°45'0 0.0
2017-Aug-15 09:28N 51°27' E 006°45'0 0.0
2017-Aug-15 08:58N 51°27' E 006°45'0 0.0
2017-Aug-15 08:28N 51°27' E 006°45'0 0.0
2017-Aug-15 07:58N 51°27' E 006°45'0 0.0
2017-Aug-15 07:22N 51°27' E 006°45'0 0.0
2017-Aug-15 06:58N 51°27' E 006°45'0 0.0
2017-Aug-15 06:28N 51°27' E 006°45'0 0.0
2017-Aug-15 05:58N 51°27' E 006°45'0 0.0
2017-Aug-15 05:28N 51°27' E 006°45'0 0.0
2017-Aug-15 04:55N 51°27' E 006°45'0 1.1
2017-Aug-15 04:30N 51°27' E 006°44'3 5.2
2017-Aug-15 04:00N 51°29' E 006°41'3 5.3
2017-Aug-15 03:30N 51°31' E 006°43'7 4.6
2017-Aug-15 02:04N 51°35' E 006°36'1 6.9
2017-Aug-15 01:58N 51°36' E 006°36'3 5.9
2017-Aug-15 01:24N 51°39' E 006°36'3 6.2
2017-Aug-15 00:59N 51°40' E 006°31'4 5.8
2017-Aug-15 00:14N 51°43' E 006°26'2 4.7
2017-Aug-14 23:49N 51°44' E 006°25'2 5.3
2017-Aug-14 23:28N 51°45' E 006°23'3 6.0
2017-Aug-14 22:59N 51°47' E 006°19'3 6.4
2017-Aug-14 22:30N 51°49' E 006°16'3 6.2
2017-Aug-14 22:00N 51°50' E 006°11'3 6.3
2017-Aug-14 21:30N 51°51' E 006°06'4 7.2
2017-Aug-14 21:00N 51°53' E 006°01'3 5.6
2017-Aug-14 20:30N 51°52' E 005°57'3 6.3
2017-Aug-14 20:00N 51°51' E 005°52'4 7.5
2017-Aug-14 19:30N 51°53' E 005°46'30 7.1
2017-Aug-14 15:16N 51°49' E 004°58'3 9.2
2017-Aug-14 14:59N 51°49' E 004°54'4 9.0
2017-Aug-14 14:30N 51°49' E 004°47'4 8.3
2017-Aug-14 14:00N 51°50' E 004°40'510.7
2017-Aug-14 13:30N 51°54' E 004°35'3 5.8
2017-Aug-14 13:00N 51°55' E 004°30'2 3.1
2017-Aug-14 12:30N 51°54' E 004°28'0 0.0
2017-Aug-14 11:59N 51°54' E 004°28'0 0.0
2017-Aug-14 11:30N 51°54' E 004°28'0 0.0
2017-Aug-14 11:00N 51°54' E 004°28'0 0.0
2017-Aug-14 10:30N 51°54' E 004°28'0 0.0
2017-Aug-14 10:00N 51°54' E 004°28'0 0.0
2017-Aug-14 09:30N 51°54' E 004°28'0 0.0
2017-Aug-14 09:00N 51°54' E 004°28'0 0.0
2017-Aug-14 08:30N 51°54' E 004°28'0 0.0
2017-Aug-14 08:00N 51°54' E 004°28'0 0.1
2017-Aug-14 07:30N 51°54' E 004°28'0 0.3
2017-Aug-14 07:01N 51°54' E 004°28'3 6.7
2017-Aug-14 06:31N 51°54' E 004°23'611.6
2017-Aug-14 06:01N 51°55' E 004°14'612.2
2017-Aug-14 05:30N 51°59' E 004°06'510.9
2017-Aug-14 05:01N 52°00' E 003°57'611.1
2017-Aug-14 04:31N 52°02' E 003°49'4 8.0
2017-Aug-14 04:00N 52°03' E 003°42'713.5
2017-Aug-14 03:30N 52°06' E 003°33'1 1.9
2017-Aug-14 03:00N 52°07' E 003°31'3 6.6
2017-Aug-14 02:30N 52°08' E 003°27'4 8.2
2017-Aug-14 02:00N 52°11' E 003°21'3 6.7
2017-Aug-14 01:30N 52°12' E 003°16'8 7.3
2017-Aug-14 00:28N 52°16' E 003°06'7 7.5
2017-Aug-13 23:30N 52°21' E 002°56'4 7.6
2017-Aug-13 22:57N 52°23' E 002°51'44 7.2
2017-Aug-13 16:50N 52°48' E 001°51'2 7.1
2017-Aug-13 16:31N 52°49' E 001°48'4 7.2
2017-Aug-13 16:00N 52°51' E 001°43'4 7.3
2017-Aug-13 15:30N 52°53' E 001°38'4 7.3
2017-Aug-13 15:01N 52°55' E 001°32'3 6.9
2017-Aug-13 14:31N 52°58' E 001°29'3 6.3
2017-Aug-13 14:01N 53°00' E 001°25'3 6.8
2017-Aug-13 13:31N 53°03' E 001°22'4 7.2
2017-Aug-13 13:01N 53°06' E 001°18'4 7.4
2017-Aug-13 12:31N 53°09' E 001°15'4 7.8
2017-Aug-13 12:00N 53°12' E 001°11'4 8.4
2017-Aug-13 11:31N 53°15' E 001°06'  
2017-Aug-07 17:55N 53°38' W 000°10'1 0.1
2017-Aug-07 09:02N 53°38' W 000°12'0 0.4
2017-Aug-07 08:21N 53°38' W 000°11'0 0.7
2017-Aug-07 08:00N 53°38' W 000°11'0 0.2
2017-Aug-07 07:30N 53°38' W 000°11'2 4.2
2017-Aug-07 07:00N 53°38' W 000°08'  

Dump ship's entire track history